createdAt,value
2018-09-07T00:00:17.540Z,0
2018-09-07T00:00:58.064Z,0
2018-09-07T00:01:38.524Z,0
2018-09-07T00:02:19.035Z,0
2018-09-07T00:02:59.564Z,0
2018-09-07T00:03:40.059Z,0
2018-09-07T00:04:20.561Z,0
2018-09-07T00:05:01.075Z,0
2018-09-07T00:05:41.609Z,0
2018-09-07T00:06:22.126Z,0
2018-09-07T00:07:02.618Z,0
2018-09-07T00:07:43.151Z,0
2018-09-07T00:08:23.646Z,0
2018-09-07T00:09:04.191Z,0
2018-09-07T00:09:44.732Z,0
2018-09-07T00:10:25.277Z,0
2018-09-07T00:11:05.759Z,0
2018-09-07T00:13:24.158Z,0
2018-09-07T00:14:04.670Z,0
2018-09-07T00:14:45.161Z,0
2018-09-07T00:15:25.629Z,0
2018-09-07T00:16:06.162Z,0
2018-09-07T00:16:46.674Z,0
2018-09-07T00:17:27.178Z,0
2018-09-07T00:18:07.645Z,0
2018-09-07T00:18:48.125Z,0
2018-09-07T00:19:28.608Z,0
2018-09-07T00:20:09.073Z,0
2018-09-07T00:20:50.374Z,0
2018-09-07T00:21:30.886Z,0
2018-09-07T00:22:11.390Z,0
2018-09-07T00:22:51.867Z,0
2018-09-07T00:23:32.440Z,0
2018-09-07T00:24:12.887Z,0
2018-09-07T00:24:53.389Z,0
2018-09-07T00:25:33.940Z,0
2018-09-07T00:26:14.458Z,0
2018-09-07T00:26:54.882Z,0
2018-09-07T00:27:35.443Z,0
2018-09-07T00:28:15.894Z,0
2018-09-07T00:28:56.394Z,0
2018-09-07T00:29:36.923Z,0
2018-09-07T00:30:17.452Z,0
2018-09-07T00:30:57.911Z,0
2018-09-07T00:31:38.414Z,0
2018-09-07T00:32:18.869Z,0
2018-09-07T00:32:59.402Z,0
2018-09-07T00:33:39.883Z,0
2018-09-07T00:34:20.363Z,0
2018-09-07T00:35:00.872Z,0
2018-09-07T00:35:41.327Z,0
2018-09-07T00:36:21.809Z,0
2018-09-07T00:37:02.318Z,0
2018-09-07T00:37:42.822Z,0
2018-09-07T00:38:23.417Z,0
2018-09-07T00:39:03.864Z,0
2018-09-07T00:39:45.298Z,0
2018-09-07T00:40:25.780Z,0
2018-09-07T00:41:06.255Z,0
2018-09-07T00:41:46.773Z,0
2018-09-07T00:42:27.442Z,0
2018-09-07T00:43:07.898Z,0
2018-09-07T00:43:48.399Z,0
2018-09-07T00:44:28.913Z,0
2018-09-07T00:45:09.456Z,0
2018-09-07T00:45:49.970Z,0
2018-09-07T00:46:30.388Z,0
2018-09-07T00:47:10.936Z,0
2018-09-07T00:47:51.393Z,0
2018-09-07T00:48:31.893Z,0
2018-09-07T00:49:12.345Z,0
2018-09-07T00:49:52.836Z,0
2018-09-07T00:50:33.347Z,0
2018-09-07T00:51:13.784Z,0
2018-09-07T00:51:54.270Z,0
2018-09-07T00:52:34.811Z,0
2018-09-07T00:53:15.288Z,0
2018-09-07T00:53:55.848Z,0
2018-09-07T00:54:36.319Z,0
2018-09-07T00:55:16.827Z,0
2018-09-07T00:55:57.284Z,0
2018-09-07T00:56:37.779Z,0
2018-09-07T00:57:18.344Z,0
2018-09-07T00:57:58.783Z,0
2018-09-07T00:58:39.272Z,0
2018-09-07T00:59:19.818Z,0
2018-09-07T01:00:00.269Z,0
2018-09-07T01:00:40.766Z,0
2018-09-07T01:01:21.266Z,0
2018-09-07T01:02:01.767Z,0
2018-09-07T01:02:42.300Z,0
2018-09-07T01:03:22.836Z,0
2018-09-07T01:04:03.369Z,0
2018-09-07T01:04:43.898Z,0
2018-09-07T01:05:24.432Z,0
2018-09-07T01:06:04.940Z,0
2018-09-07T01:06:45.448Z,0
2018-09-07T01:07:25.957Z,0
2018-09-07T01:08:06.487Z,0
2018-09-07T01:08:47.000Z,0
2018-09-07T01:09:27.505Z,0
2018-09-07T01:10:08.036Z,0
2018-09-07T01:10:48.570Z,0
2018-09-07T01:11:29.074Z,0
2018-09-07T01:12:09.589Z,0
2018-09-07T01:12:50.140Z,0
2018-09-07T01:13:30.626Z,0
2018-09-07T01:14:11.161Z,0
2018-09-07T01:14:51.669Z,0
2018-09-07T01:15:32.185Z,0
2018-09-07T01:16:12.737Z,0
2018-09-07T01:16:53.238Z,0
2018-09-07T01:17:33.753Z,0
2018-09-07T01:18:14.222Z,0
2018-09-07T01:18:54.733Z,0
2018-09-07T01:19:35.276Z,0
2018-09-07T01:20:15.735Z,0
2018-09-07T01:20:56.317Z,0
2018-09-07T01:21:36.829Z,0
2018-09-07T01:22:17.379Z,0
2018-09-07T01:22:57.851Z,0
2018-09-07T01:23:38.315Z,0
2018-09-07T01:24:18.839Z,0
2018-09-07T01:24:59.364Z,0
2018-09-07T01:25:39.849Z,0
2018-09-07T01:26:20.346Z,0
2018-09-07T01:27:00.787Z,0
2018-09-07T01:27:41.279Z,0
2018-09-07T01:28:21.767Z,0
2018-09-07T01:29:02.237Z,0
2018-09-07T01:29:42.732Z,0
2018-09-07T01:30:23.237Z,0
2018-09-07T01:31:03.722Z,0
2018-09-07T01:31:44.231Z,0
2018-09-07T01:32:25.545Z,0
2018-09-07T01:33:06.005Z,0
2018-09-07T01:33:46.514Z,0
2018-09-07T01:34:27.006Z,0
2018-09-07T01:35:07.464Z,0
2018-09-07T01:35:47.954Z,0
2018-09-07T01:36:28.474Z,0
2018-09-07T01:37:09.015Z,0
2018-09-07T01:37:49.496Z,0
2018-09-07T01:38:30.021Z,0
2018-09-07T01:39:10.522Z,0
2018-09-07T01:39:51.005Z,0
2018-09-07T01:40:31.531Z,0
2018-09-07T01:41:12.070Z,0
2018-09-07T01:41:52.521Z,0
2018-09-07T01:42:32.995Z,0
2018-09-07T01:43:13.520Z,0
2018-09-07T01:43:54.011Z,0
2018-09-07T01:44:34.475Z,0
2018-09-07T01:45:14.973Z,0
2018-09-07T01:45:55.457Z,0
2018-09-07T01:46:35.998Z,0
2018-09-07T01:47:16.469Z,0
2018-09-07T01:47:56.997Z,0
2018-09-07T01:48:37.471Z,0
2018-09-07T01:49:17.937Z,0
2018-09-07T01:49:58.457Z,0
2018-09-07T01:50:38.936Z,0
2018-09-07T01:51:19.428Z,0
2018-09-07T01:51:59.941Z,0
2018-09-07T01:52:40.427Z,0
2018-09-07T01:53:20.939Z,0
2018-09-07T01:54:01.410Z,0
2018-09-07T01:54:41.914Z,0
2018-09-07T01:55:22.437Z,0
2018-09-07T01:56:02.887Z,0
2018-09-07T01:56:43.972Z,0
2018-09-07T01:57:23.907Z,0
2018-09-07T01:58:04.379Z,0
2018-09-07T01:58:44.922Z,0
2018-09-07T01:59:25.373Z,0
2018-09-07T02:00:05.877Z,0
2018-09-07T02:00:46.386Z,0
2018-09-07T02:01:26.883Z,0
2018-09-07T02:02:07.375Z,0
2018-09-07T02:02:47.838Z,0
2018-09-07T02:03:28.385Z,0
2018-09-07T02:04:08.866Z,0
2018-09-07T02:04:49.343Z,0
2018-09-07T02:05:29.828Z,0
2018-09-07T02:06:10.319Z,0
2018-09-07T02:06:50.821Z,0
2018-09-07T02:07:31.287Z,0
2018-09-07T02:08:11.811Z,0
2018-09-07T02:08:52.308Z,0
2018-09-07T02:09:32.795Z,0
2018-09-07T02:10:13.327Z,0
2018-09-07T02:10:54.179Z,0
2018-09-07T02:11:36.270Z,0
2018-09-07T02:12:16.755Z,0
2018-09-07T02:12:57.225Z,0
2018-09-07T02:13:37.728Z,0
2018-09-07T02:14:18.252Z,0
2018-09-07T02:14:58.718Z,0
2018-09-07T02:15:39.294Z,0
2018-09-07T02:16:19.831Z,0
2018-09-07T02:17:00.314Z,0
2018-09-07T02:17:40.771Z,0
2018-09-07T02:18:21.301Z,0
2018-09-07T02:19:01.776Z,0
2018-09-07T02:19:42.253Z,0
2018-09-07T02:20:22.745Z,0
2018-09-07T02:21:03.190Z,0
2018-09-07T02:21:43.722Z,0
2018-09-07T02:22:24.223Z,0
2018-09-07T02:23:04.729Z,0
2018-09-07T02:23:45.259Z,0
2018-09-07T02:24:25.746Z,0
2018-09-07T02:25:06.198Z,0
2018-09-07T02:25:46.713Z,0
2018-09-07T02:26:27.199Z,0
2018-09-07T02:27:07.729Z,0
2018-09-07T02:27:48.214Z,0
2018-09-07T02:28:28.739Z,0
2018-09-07T02:29:09.248Z,0
2018-09-07T02:29:49.670Z,0
2018-09-07T02:30:30.278Z,0
2018-09-07T02:31:10.704Z,0
2018-09-07T02:31:51.166Z,0
2018-09-07T02:32:31.736Z,0
2018-09-07T02:33:12.210Z,0
2018-09-07T02:33:52.687Z,0
2018-09-07T02:34:33.198Z,0
2018-09-07T02:35:16.392Z,0
2018-09-07T02:35:56.894Z,0
2018-09-07T02:36:37.418Z,0
2018-09-07T02:37:17.870Z,0
2018-09-07T02:37:58.371Z,0
2018-09-07T02:38:38.832Z,0
2018-09-07T02:39:19.342Z,0
2018-09-07T02:39:59.847Z,0
2018-09-07T02:40:40.380Z,0
2018-09-07T02:41:20.861Z,0
2018-09-07T02:42:01.395Z,0
2018-09-07T02:42:41.922Z,0
2018-09-07T02:43:22.412Z,0
2018-09-07T02:44:02.940Z,0
2018-09-07T02:44:43.398Z,0
2018-09-07T02:45:23.901Z,0
2018-09-07T02:46:04.380Z,0
2018-09-07T02:46:44.864Z,0
2018-09-07T02:47:25.341Z,0
2018-09-07T02:48:05.898Z,0
2018-09-07T02:48:46.402Z,0
2018-09-07T02:49:26.838Z,0
2018-09-07T02:50:07.395Z,0
2018-09-07T02:50:47.896Z,0
2018-09-07T02:51:28.356Z,0
2018-09-07T02:52:08.898Z,0
2018-09-07T02:52:49.807Z,0
2018-09-07T02:53:30.314Z,0
2018-09-07T02:54:10.809Z,0
2018-09-07T02:54:51.310Z,0
2018-09-07T02:55:31.776Z,0
2018-09-07T02:56:12.225Z,0
2018-09-07T02:56:52.746Z,0
2018-09-07T02:57:33.208Z,0
2018-09-07T02:58:13.658Z,0
2018-09-07T02:58:54.169Z,0
2018-09-07T02:59:34.670Z,0
2018-09-07T03:00:15.186Z,0
2018-09-07T03:00:55.652Z,0
2018-09-07T03:01:36.381Z,0
2018-09-07T03:02:16.792Z,0
2018-09-07T03:02:57.313Z,0
2018-09-07T03:03:37.818Z,0
2018-09-07T03:04:18.332Z,0
2018-09-07T03:04:58.770Z,0
2018-09-07T03:05:39.311Z,0
2018-09-07T03:06:19.771Z,0
2018-09-07T03:07:00.299Z,0
2018-09-07T03:07:40.818Z,0
2018-09-07T03:08:21.346Z,0
2018-09-07T03:09:01.843Z,0
2018-09-07T03:09:42.300Z,0
2018-09-07T03:10:22.801Z,0
2018-09-07T03:11:03.282Z,0
2018-09-07T03:11:43.746Z,0
2018-09-07T03:12:24.242Z,0
2018-09-07T03:13:04.744Z,0
2018-09-07T03:13:45.260Z,0
2018-09-07T03:14:25.736Z,0
2018-09-07T03:15:06.190Z,0
2018-09-07T03:15:46.673Z,0
2018-09-07T03:16:27.144Z,0
2018-09-07T03:17:07.638Z,0
2018-09-07T03:17:48.112Z,0
2018-09-07T03:18:28.753Z,0
2018-09-07T03:19:09.206Z,0
2018-09-07T03:19:49.672Z,0
2018-09-07T03:20:30.292Z,0
2018-09-07T03:21:10.758Z,0
2018-09-07T03:21:51.194Z,0
2018-09-07T03:22:31.708Z,0
2018-09-07T03:23:12.215Z,0
2018-09-07T03:23:52.694Z,0
2018-09-07T03:24:33.176Z,0
2018-09-07T03:25:13.733Z,0
2018-09-07T03:25:54.188Z,0
2018-09-07T03:26:34.737Z,0
2018-09-07T03:27:15.195Z,0
2018-09-07T03:27:55.720Z,0
2018-09-07T03:28:36.221Z,0
2018-09-07T03:29:16.749Z,0
2018-09-07T03:29:57.194Z,0
2018-09-07T03:30:37.727Z,0
2018-09-07T03:31:18.217Z,0
2018-09-07T03:31:58.683Z,0
2018-09-07T03:32:39.183Z,0
2018-09-07T03:33:19.729Z,0
2018-09-07T03:34:00.202Z,0
2018-09-07T03:34:40.688Z,0
2018-09-07T03:35:21.164Z,0
2018-09-07T03:36:01.701Z,0
2018-09-07T03:36:42.280Z,0
2018-09-07T03:37:22.717Z,0
2018-09-07T03:38:03.195Z,0
2018-09-07T03:38:43.761Z,0
2018-09-07T03:39:24.217Z,0
2018-09-07T03:40:04.798Z,0
2018-09-07T03:40:45.356Z,0
2018-09-07T03:41:25.849Z,0
2018-09-07T03:42:06.324Z,0
2018-09-07T03:42:46.789Z,0
2018-09-07T03:43:27.304Z,0
2018-09-07T03:44:07.835Z,0
2018-09-07T03:44:48.276Z,0
2018-09-07T03:45:28.869Z,0
2018-09-07T03:46:09.418Z,0
2018-09-07T03:46:49.928Z,0
2018-09-07T03:47:30.428Z,0
2018-09-07T03:48:10.921Z,0
2018-09-07T03:48:51.450Z,0
2018-09-07T03:49:32.002Z,0
2018-09-07T03:50:12.444Z,0
2018-09-07T03:50:52.983Z,0
2018-09-07T03:51:33.435Z,0
2018-09-07T03:52:13.898Z,0
2018-09-07T03:52:54.385Z,0
2018-09-07T03:53:34.891Z,0
2018-09-07T03:54:15.370Z,0
2018-09-07T03:54:55.865Z,0
2018-09-07T03:55:36.326Z,0
2018-09-07T03:56:21.194Z,0
2018-09-07T03:57:01.731Z,0
2018-09-07T03:57:42.224Z,0
2018-09-07T03:58:22.703Z,0
2018-09-07T03:59:03.181Z,0
2018-09-07T03:59:45.256Z,0
2018-09-07T04:00:25.762Z,0
2018-09-07T04:01:06.271Z,0
2018-09-07T04:01:46.770Z,0
2018-09-07T04:02:27.228Z,0
2018-09-07T04:03:07.769Z,0
2018-09-07T04:03:48.257Z,0
2018-09-07T04:04:28.707Z,0
2018-09-07T04:05:09.171Z,0
2018-09-07T04:05:49.669Z,0
2018-09-07T04:06:30.149Z,0
2018-09-07T04:07:10.691Z,0
2018-09-07T04:07:51.125Z,0
2018-09-07T04:08:31.684Z,0
2018-09-07T04:09:12.116Z,0
2018-09-07T04:09:53.238Z,0
2018-09-07T04:10:33.689Z,0
2018-09-07T04:11:14.251Z,0
2018-09-07T04:11:54.691Z,0
2018-09-07T04:12:35.194Z,0
2018-09-07T04:13:15.680Z,0
2018-09-07T04:13:56.166Z,0
2018-09-07T04:14:36.708Z,0
2018-09-07T04:15:17.200Z,0
2018-09-07T04:15:57.671Z,0
2018-09-07T04:16:38.258Z,0
2018-09-07T04:17:18.782Z,0
2018-09-07T04:17:59.292Z,0
2018-09-07T04:18:39.816Z,0
2018-09-07T04:19:20.314Z,0
2018-09-07T04:20:00.831Z,0
2018-09-07T04:20:41.334Z,0
2018-09-07T04:21:21.839Z,0
2018-09-07T04:22:02.363Z,0
2018-09-07T04:22:42.865Z,0
2018-09-07T04:23:23.314Z,0
2018-09-07T04:24:03.825Z,0
2018-09-07T04:24:44.354Z,0
2018-09-07T04:25:24.877Z,0
2018-09-07T04:26:05.324Z,0
2018-09-07T04:26:45.914Z,0
2018-09-07T04:27:27.120Z,0
2018-09-07T04:28:07.646Z,0
2018-09-07T04:28:48.104Z,0
2018-09-07T04:29:28.593Z,0
2018-09-07T04:30:09.086Z,0
2018-09-07T04:30:49.578Z,0
2018-09-07T04:31:30.118Z,0
2018-09-07T04:32:10.587Z,0
2018-09-07T04:32:51.205Z,0
2018-09-07T04:33:31.643Z,0
2018-09-07T04:34:12.138Z,0
2018-09-07T04:34:52.639Z,0
2018-09-07T04:35:33.141Z,0
2018-09-07T04:36:13.631Z,0
2018-09-07T04:36:54.158Z,0
2018-09-07T04:37:34.749Z,0
2018-09-07T04:38:15.141Z,0
2018-09-07T04:38:55.630Z,0
2018-09-07T04:39:36.140Z,0
2018-09-07T04:40:16.639Z,0
2018-09-07T04:40:57.180Z,0
2018-09-07T04:41:37.685Z,0
2018-09-07T04:42:18.139Z,0
2018-09-07T04:42:58.668Z,0
2018-09-07T04:43:39.143Z,0
2018-09-07T04:44:19.639Z,0
2018-09-07T04:45:00.223Z,0
2018-09-07T04:45:40.709Z,0
2018-09-07T04:46:21.228Z,0
2018-09-07T04:47:01.744Z,0
2018-09-07T04:47:42.249Z,0
2018-09-07T04:48:22.886Z,0
2018-09-07T04:49:03.212Z,0
2018-09-07T04:49:43.973Z,0
2018-09-07T04:50:24.357Z,0
2018-09-07T04:51:04.826Z,0
2018-09-07T04:51:46.037Z,0
2018-09-07T04:52:26.533Z,0
2018-09-07T04:53:07.161Z,0
2018-09-07T04:53:47.738Z,0
2018-09-07T04:54:28.225Z,0
2018-09-07T04:55:08.742Z,0
2018-09-07T04:55:49.446Z,0
2018-09-07T04:56:29.851Z,0
2018-09-07T04:57:10.388Z,0
2018-09-07T04:57:50.899Z,0
2018-09-07T04:58:31.389Z,0
2018-09-07T04:59:11.934Z,0
2018-09-07T04:59:52.656Z,0
2018-09-07T05:00:33.160Z,0
2018-09-07T05:01:13.657Z,0
2018-09-07T05:01:54.158Z,0
2018-09-07T05:02:34.642Z,0
2018-09-07T05:03:15.147Z,0
2018-09-07T05:03:55.641Z,0
2018-09-07T05:04:36.137Z,0
2018-09-07T05:05:16.649Z,0
2018-09-07T05:05:57.097Z,0
2018-09-07T05:06:37.616Z,0
2018-09-07T05:07:18.074Z,0
2018-09-07T05:07:58.557Z,0
2018-09-07T05:08:39.170Z,0
2018-09-07T05:09:19.636Z,0
2018-09-07T05:10:00.184Z,0
2018-09-07T05:10:40.714Z,0
2018-09-07T05:11:21.205Z,0
2018-09-07T05:12:01.714Z,0
2018-09-07T05:12:42.265Z,0
2018-09-07T05:13:22.803Z,0
2018-09-07T05:14:03.258Z,0
2018-09-07T05:14:43.811Z,0
2018-09-07T05:15:24.257Z,0
2018-09-07T05:16:04.735Z,0
2018-09-07T05:16:45.262Z,0
2018-09-07T05:17:25.705Z,5
2018-09-07T05:18:06.209Z,5
2018-09-07T05:18:46.698Z,5
2018-09-07T05:19:27.275Z,0
2018-09-07T05:20:07.737Z,5
2018-09-07T05:20:48.252Z,5
2018-09-07T05:21:28.789Z,5
2018-09-07T05:22:09.279Z,5
2018-09-07T05:22:49.758Z,5
2018-09-07T05:23:30.243Z,5
2018-09-07T05:24:10.765Z,5
2018-09-07T05:24:51.250Z,5
2018-09-07T05:25:31.739Z,5
2018-09-07T05:26:12.311Z,5
2018-09-07T05:26:52.813Z,5
2018-09-07T05:27:33.283Z,5
2018-09-07T05:28:13.803Z,5
2018-09-07T05:28:54.279Z,5
2018-09-07T05:29:34.749Z,5
2018-09-07T05:30:15.281Z,5
2018-09-07T05:30:55.735Z,5
2018-09-07T05:31:36.402Z,5
2018-09-07T05:32:16.848Z,5
2018-09-07T05:32:57.396Z,5
2018-09-07T05:33:37.934Z,5
2018-09-07T05:34:18.436Z,5
2018-09-07T05:34:58.880Z,5
2018-09-07T05:35:39.386Z,5
2018-09-07T05:36:19.917Z,5
2018-09-07T05:37:00.479Z,5
2018-09-07T05:37:41.011Z,5
2018-09-07T05:38:21.576Z,5
2018-09-07T05:39:02.037Z,5
2018-09-07T05:39:42.590Z,5
2018-09-07T05:40:23.109Z,5
2018-09-07T05:41:03.602Z,5
2018-09-07T05:41:44.138Z,5
2018-09-07T05:42:24.714Z,5
2018-09-07T05:43:05.218Z,5
2018-09-07T05:45:34.070Z,5
2018-09-07T05:46:14.575Z,5
2018-09-07T05:46:55.086Z,5
2018-09-07T05:47:35.675Z,5
2018-09-07T05:48:16.192Z,5
2018-09-07T05:48:56.775Z,5
2018-09-07T05:49:37.320Z,5
2018-09-07T05:50:17.818Z,5
2018-09-07T05:50:58.328Z,5
2018-09-07T05:51:38.853Z,5
2018-09-07T05:52:19.493Z,5
2018-09-07T05:53:00.022Z,5
2018-09-07T05:53:40.527Z,5
2018-09-07T05:54:21.032Z,10
2018-09-07T05:55:01.660Z,10
2018-09-07T05:55:42.212Z,10
2018-09-07T05:56:22.680Z,10
2018-09-07T05:57:03.206Z,10
2018-09-07T05:57:43.737Z,10
2018-09-07T05:58:24.263Z,10
2018-09-07T05:59:04.882Z,10
2018-09-07T05:59:45.411Z,10
2018-09-07T06:00:25.966Z,10
2018-09-07T06:01:06.462Z,15
2018-09-07T06:01:47.050Z,15
2018-09-07T06:02:27.564Z,15
2018-09-07T06:03:08.080Z,15
2018-09-07T06:03:48.592Z,15
2018-09-07T06:04:29.127Z,15
2018-09-07T06:05:09.646Z,15
2018-09-07T06:05:50.160Z,15
2018-09-07T06:06:30.678Z,15
2018-09-07T06:07:11.214Z,15
2018-09-07T06:07:51.700Z,15
2018-09-07T06:08:32.225Z,15
2018-09-07T06:09:13.538Z,15
2018-09-07T06:09:54.042Z,15
2018-09-07T06:10:34.679Z,15
2018-09-07T06:11:15.109Z,15
2018-09-07T06:11:55.583Z,15
2018-09-07T06:12:36.121Z,15
2018-09-07T06:13:16.606Z,10
2018-09-07T06:13:57.124Z,5
2018-09-07T06:14:37.629Z,5
2018-09-07T06:15:18.265Z,5
2018-09-07T06:15:58.801Z,5
2018-09-07T06:16:39.471Z,5
2018-09-07T06:17:19.793Z,5
2018-09-07T06:18:00.343Z,5
2018-09-07T06:18:40.828Z,5
2018-09-07T06:19:21.593Z,5
2018-09-07T06:21:34.890Z,10
2018-09-07T06:22:15.410Z,15
2018-09-07T06:22:55.931Z,15
2018-09-07T06:23:36.499Z,15
2018-09-07T06:24:17.061Z,20
2018-09-07T06:24:58.421Z,25
2018-09-07T06:25:38.922Z,25
2018-09-07T06:26:19.460Z,25
2018-09-07T06:26:59.928Z,25
2018-09-07T06:27:40.462Z,30
2018-09-07T06:28:20.955Z,30
2018-09-07T06:29:01.481Z,30
2018-09-07T06:29:41.997Z,30
2018-09-07T06:30:22.453Z,30
2018-09-07T06:31:03.001Z,30
2018-09-07T06:31:43.469Z,30
2018-09-07T06:32:23.984Z,30
2018-09-07T06:33:04.589Z,25
2018-09-07T06:33:45.094Z,25
2018-09-07T06:34:26.424Z,25
2018-09-07T06:35:06.908Z,30
2018-09-07T06:35:47.470Z,30
2018-09-07T06:36:27.936Z,30
2018-09-07T06:37:08.415Z,25
2018-09-07T06:37:48.953Z,30
2018-09-07T06:38:29.464Z,30
2018-09-07T06:39:09.948Z,30
2018-09-07T06:39:50.389Z,30
2018-09-07T06:40:31.254Z,30
2018-09-07T06:41:11.748Z,30
2018-09-07T06:41:52.255Z,30
2018-09-07T06:42:32.720Z,30
2018-09-07T06:43:13.212Z,30
2018-09-07T06:43:53.771Z,35
2018-09-07T06:44:34.304Z,35
2018-09-07T06:45:14.785Z,35
2018-09-07T06:45:55.298Z,30
2018-09-07T06:46:35.792Z,35
2018-09-07T06:47:16.300Z,30
2018-09-07T06:47:56.754Z,30
2018-09-07T06:48:37.906Z,30
2018-09-07T06:49:18.388Z,25
2018-09-07T06:49:58.882Z,20
2018-09-07T06:50:40.058Z,15
2018-09-07T06:51:20.489Z,15
2018-09-07T06:52:01.022Z,15
2018-09-07T06:52:41.546Z,15
2018-09-07T06:53:22.071Z,15
2018-09-07T06:54:02.519Z,15
2018-09-07T06:54:43.013Z,20
2018-09-07T06:55:23.488Z,20
2018-09-07T06:56:04.015Z,20
2018-09-07T06:56:44.474Z,20
2018-09-07T06:57:24.937Z,25
2018-09-07T06:58:05.475Z,25
2018-09-07T06:58:46.058Z,25
2018-09-07T06:59:26.568Z,30
2018-09-07T07:00:07.400Z,25
2018-09-07T07:00:47.880Z,20
2018-09-07T07:01:28.427Z,20
2018-09-07T07:02:08.891Z,15
2018-09-07T07:02:49.535Z,15
2018-09-07T07:03:29.944Z,15
2018-09-07T07:04:10.439Z,10
2018-09-07T07:04:51.025Z,10
2018-09-07T07:05:31.720Z,10
2018-09-07T07:06:12.260Z,15
2018-09-07T07:06:52.804Z,10
2018-09-07T07:07:33.531Z,10
2018-09-07T07:08:14.017Z,15
2018-09-07T07:08:54.569Z,15
2018-09-07T07:09:35.038Z,15
2018-09-07T07:10:15.568Z,20
2018-09-07T07:10:56.034Z,20
2018-09-07T07:11:36.634Z,25
2018-09-07T07:12:17.510Z,35
2018-09-07T07:12:57.993Z,35
2018-09-07T07:13:38.458Z,40
2018-09-07T07:14:18.974Z,45
2018-09-07T07:14:59.508Z,50
2018-09-07T07:15:39.999Z,55
2018-09-07T07:16:20.586Z,55
2018-09-07T07:17:01.259Z,55
2018-09-07T07:17:41.808Z,80
2018-09-07T07:18:22.312Z,65
2018-09-07T07:19:02.805Z,95
2018-09-07T07:19:43.289Z,175
2018-09-07T07:20:23.764Z,195
2018-09-07T07:21:04.295Z,200
2018-09-07T07:21:44.763Z,190
2018-09-07T07:22:25.262Z,190
2018-09-07T07:23:05.803Z,210
2018-09-07T07:23:46.329Z,210
2018-09-07T07:24:26.804Z,220
2018-09-07T07:25:07.299Z,220
2018-09-07T07:25:47.813Z,215
2018-09-07T07:26:28.363Z,210
2018-09-07T07:27:08.819Z,200
2018-09-07T07:27:49.347Z,180
2018-09-07T07:28:29.897Z,105
2018-09-07T07:29:10.446Z,185
2018-09-07T07:29:50.929Z,180
2018-09-07T07:30:31.471Z,170
2018-09-07T07:31:12.014Z,160
2018-09-07T07:31:52.473Z,160
2018-09-07T07:32:32.959Z,150
2018-09-07T07:33:13.491Z,145
2018-09-07T07:33:53.954Z,140
2018-09-07T07:34:34.466Z,150
2018-09-07T07:35:14.988Z,125
2018-09-07T07:35:55.488Z,105
2018-09-07T07:36:35.998Z,100
2018-09-07T07:37:16.640Z,90
2018-09-07T07:37:57.050Z,85
2018-09-07T07:38:37.579Z,80
2018-09-07T07:39:18.125Z,75
2018-09-07T07:40:02.572Z,85
2018-09-07T07:40:39.813Z,100
2018-09-07T07:41:20.331Z,125
2018-09-07T07:42:00.769Z,155
2018-09-07T07:42:41.262Z,150
2018-09-07T07:43:21.761Z,105
2018-09-07T07:44:03.235Z,100
2018-09-07T07:44:43.775Z,115
2018-09-07T07:45:24.284Z,115
2018-09-07T07:46:04.757Z,115
2018-09-07T07:46:45.281Z,125
2018-09-07T07:47:25.776Z,115
2018-09-07T07:48:06.414Z,115
2018-09-07T07:48:46.759Z,105
2018-09-07T07:49:27.327Z,100
2018-09-07T07:50:07.823Z,85
2018-09-07T07:50:48.590Z,75
2018-09-07T07:51:29.050Z,80
2018-09-07T07:52:09.545Z,90
2018-09-07T07:52:50.040Z,95
2018-09-07T07:53:31.420Z,100
2018-09-07T07:54:11.982Z,80
2018-09-07T07:54:52.555Z,65
2018-09-07T07:55:33.024Z,70
2018-09-07T07:56:13.511Z,60
2018-09-07T07:56:54.054Z,60
2018-09-07T07:57:34.529Z,60
2018-09-07T07:58:15.078Z,60
2018-09-07T07:58:55.612Z,55
2018-09-07T07:59:36.154Z,55
2018-09-07T08:00:16.644Z,55
2018-09-07T08:00:57.143Z,55
2018-09-07T08:01:37.641Z,60
2018-09-07T08:02:18.119Z,70
2018-09-07T08:02:58.751Z,60
2018-09-07T08:03:39.244Z,85
2018-09-07T08:04:20.652Z,70
2018-09-07T08:05:01.144Z,70
2018-09-07T08:05:41.712Z,75
2018-09-07T08:06:22.101Z,75
2018-09-07T08:07:02.609Z,75
2018-09-07T08:07:43.111Z,80
2018-09-07T08:08:23.659Z,70
2018-09-07T08:09:04.238Z,70
2018-09-07T08:09:44.850Z,85
2018-09-07T08:10:25.279Z,95
2018-09-07T08:11:06.862Z,105
2018-09-07T08:11:47.501Z,110
2018-09-07T08:12:28.070Z,110
2018-09-07T08:13:08.600Z,110
2018-09-07T08:13:49.215Z,105
2018-09-07T08:14:29.961Z,105
2018-09-07T08:15:10.482Z,105
2018-09-07T08:15:50.951Z,100
2018-09-07T08:16:31.535Z,90
2018-09-07T08:17:12.147Z,85
2018-09-07T08:17:52.609Z,90
2018-09-07T08:18:33.146Z,95
2018-09-07T08:19:13.781Z,95
2018-09-07T08:19:54.349Z,85
2018-09-07T08:20:34.902Z,80
2018-09-07T08:21:15.474Z,85
2018-09-07T08:21:56.033Z,95
2018-09-07T08:22:36.469Z,100
2018-09-07T08:23:17.727Z,95
2018-09-07T08:23:58.357Z,95
2018-09-07T08:24:39.011Z,80
2018-09-07T08:25:19.537Z,65
2018-09-07T08:26:00.092Z,55
2018-09-07T08:26:40.716Z,60
2018-09-07T08:27:21.170Z,75
2018-09-07T08:28:01.739Z,90
2018-09-07T08:28:42.195Z,90
2018-09-07T08:29:22.740Z,80
2018-09-07T08:30:03.192Z,75
2018-09-07T08:30:43.695Z,70
2018-09-07T08:31:24.242Z,70
2018-09-07T08:32:04.751Z,85
2018-09-07T08:32:45.479Z,95
2018-09-07T08:33:25.805Z,105
2018-09-07T08:34:06.300Z,105
2018-09-07T08:34:47.010Z,115
2018-09-07T08:35:27.531Z,130
2018-09-07T08:36:08.053Z,145
2018-09-07T08:36:48.567Z,150
2018-09-07T08:37:29.429Z,145
2018-09-07T08:38:10.107Z,150
2018-09-07T08:38:51.445Z,155
2018-09-07T08:39:31.843Z,150
2018-09-07T08:40:12.422Z,130
2018-09-07T08:40:53.288Z,105
2018-09-07T08:41:34.045Z,95
2018-09-07T08:42:14.578Z,85
2018-09-07T08:42:55.174Z,80
2018-09-07T08:43:36.046Z,80
2018-09-07T08:44:17.952Z,85
2018-09-07T08:44:58.517Z,95
2018-09-07T08:45:39.184Z,105
2018-09-07T08:46:19.663Z,115
2018-09-07T08:47:00.273Z,130
2018-09-07T08:47:40.648Z,145
2018-09-07T08:48:21.160Z,160
2018-09-07T08:49:01.852Z,170
2018-09-07T08:49:42.347Z,180
2018-09-07T08:50:22.885Z,185
2018-09-07T08:51:03.470Z,185
2018-09-07T08:51:44.505Z,190
2018-09-07T08:52:24.870Z,195
2018-09-07T08:53:05.360Z,195
2018-09-07T08:53:45.908Z,195
2018-09-07T08:54:26.502Z,195
2018-09-07T08:55:07.165Z,185
2018-09-07T08:55:47.649Z,180
2018-09-07T08:56:28.229Z,175
2018-09-07T08:57:09.093Z,180
2018-09-07T08:57:49.704Z,180
2018-09-07T08:58:30.436Z,175
2018-09-07T08:59:11.221Z,170
2018-09-07T08:59:51.549Z,155
2018-09-07T09:00:32.280Z,155
2018-09-07T09:01:12.811Z,180
2018-09-07T09:01:53.349Z,165
2018-09-07T09:02:33.897Z,160
2018-09-07T09:03:14.655Z,150
2018-09-07T09:03:55.310Z,145
2018-09-07T09:04:35.929Z,145
2018-09-07T09:05:16.817Z,150
2018-09-07T09:05:57.337Z,155
2018-09-07T09:06:37.922Z,165
2018-09-07T09:07:18.556Z,165
2018-09-07T09:07:59.900Z,165
2018-09-07T09:08:40.184Z,165
2018-09-07T09:09:21.017Z,160
2018-09-07T09:10:02.459Z,160
2018-09-07T09:10:42.990Z,160
2018-09-07T09:11:24.281Z,155
2018-09-07T09:12:04.986Z,150
2018-09-07T09:12:45.519Z,145
2018-09-07T09:13:26.266Z,150
2018-09-07T09:14:06.795Z,150
2018-09-07T09:14:47.302Z,155
2018-09-07T09:15:27.837Z,150
2018-09-07T09:16:08.319Z,145
2018-09-07T09:16:48.999Z,140
2018-09-07T09:17:29.520Z,75
2018-09-07T09:18:10.132Z,95
2018-09-07T09:18:50.714Z,135
2018-09-07T09:19:31.345Z,140
2018-09-07T09:20:11.953Z,155
2018-09-07T09:20:52.600Z,155
2018-09-07T09:21:33.264Z,175
2018-09-07T09:22:13.728Z,180
2018-09-07T09:22:54.360Z,180
2018-09-07T09:23:35.302Z,175
2018-09-07T09:24:15.856Z,180
2018-09-07T09:24:56.625Z,185
2018-09-07T09:25:37.085Z,190
2018-09-07T09:26:17.804Z,190
2018-09-07T09:26:58.422Z,200
2018-09-07T09:27:38.977Z,200
2018-09-07T09:28:19.643Z,200
2018-09-07T09:29:00.260Z,195
2018-09-07T09:29:40.734Z,190
2018-09-07T09:30:21.196Z,190
2018-09-07T09:31:01.892Z,190
2018-09-07T09:31:42.650Z,190
2018-09-07T09:32:23.090Z,190
2018-09-07T09:33:03.692Z,190
2018-09-07T09:33:44.142Z,190
2018-09-07T09:34:24.605Z,195
2018-09-07T09:35:05.155Z,195
2018-09-07T09:35:45.762Z,195
2018-09-07T09:36:26.345Z,200
2018-09-07T09:37:06.832Z,200
2018-09-07T09:37:47.388Z,205
2018-09-07T09:38:27.979Z,200
2018-09-07T09:39:08.599Z,190
2018-09-07T09:39:49.085Z,170
2018-09-07T09:40:29.554Z,160
2018-09-07T09:41:10.110Z,155
2018-09-07T09:41:50.603Z,160
2018-09-07T09:42:31.116Z,165
2018-09-07T09:43:11.629Z,165
2018-09-07T09:43:52.164Z,155
2018-09-07T09:44:32.754Z,155
2018-09-07T09:45:14.881Z,150
2018-09-07T09:45:55.436Z,145
2018-09-07T09:46:35.956Z,130
2018-09-07T09:47:16.636Z,115
2018-09-07T09:47:57.011Z,120
2018-09-07T09:48:37.608Z,120
2018-09-07T09:49:18.792Z,125
2018-09-07T09:49:59.407Z,120
2018-09-07T09:50:40.029Z,120
2018-09-07T09:51:20.692Z,120
2018-09-07T09:52:01.184Z,125